Time;durP1;ratioP1;P1;durP2;ratioP2;P2;SDS_P1;SDS_P2;PMS_P1;PMS_P2;Temp;Humidity;BMP_temperature;BMP_pressure;BME280_temperature;BME280_humidity;BME280_pressure;Samples;Min_cycle;Max_cycle;Signal;HPM_P1;HPM_P2
2021/04/11 00:00:30;;;;;;;19.23;9.07;;;13.00;47.60;;;;;;10214591;28;20058;-82
2021/04/11 00:05:41;;;;;;;15.50;8.65;;;15.50;48.70;;;;;;10213859;28;20497;-85
2021/04/11 00:10:37;;;;;;;16.35;8.68;;;13.20;48.30;;;;;;10222479;28;20074;-84
2021/04/11 00:15:30;;;;;;;16.98;8.32;;;15.60;48.90;;;;;;10219792;28;20044;-85
2021/04/11 00:20:23;;;;;;;16.98;8.38;;;14.90;48.60;;;;;;10220101;28;20482;-85
2021/04/11 00:25:19;;;;;;;15.43;7.75;;;14.80;48.80;;;;;;10221351;28;20051;-83
2021/04/11 00:30:14;;;;;;;15.18;7.13;;;;;;;;;;10221410;28;20490;-85
2021/04/11 00:35:09;;;;;;;16.33;7.00;;;15.60;50.10;;;;;;10222680;28;20051;-85
2021/04/11 00:40:01;;;;;;;13.40;6.82;;;14.80;49.20;;;;;;10234550;28;20056;-85
2021/04/11 00:45:09;;;;;;;16.65;6.97;;;14.20;49.00;;;;;;10221753;28;20044;-81
2021/04/11 00:50:07;;;;;;;17.80;7.70;;;12.40;48.90;;;;;;10202863;28;20085;-83
2021/04/11 00:55:00;;;;;;;17.02;6.68;;;12.60;48.80;;;;;;10203461;28;20067;-81
2021/04/11 00:59:53;;;;;;;11.38;6.35;;;;;;;;;;10220729;28;20049;-81
2021/04/11 01:04:47;;;;;;;20.45;9.45;;;;;;;;;;10202686;28;20040;-81
2021/04/11 01:09:45;;;;;;;17.35;8.43;;;14.20;49.40;;;;;;10201988;28;20051;-82
2021/04/11 01:14:40;;;;;;;18.70;9.18;;;14.10;49.30;;;;;;10220095;28;20481;-81
2021/04/11 01:19:37;;;;;;;18.33;8.20;;;12.10;48.20;;;;;;10201408;28;20456;-82
2021/04/11 01:24:37;;;;;;;17.80;7.55;;;14.00;50.40;;;;;;10201809;28;20047;-84
2021/04/11 01:29:32;;;;;;;15.55;8.35;;;14.40;49.80;;;;;;10201851;28;20051;-79
2021/04/11 01:34:25;;;;;;;21.30;10.38;;;14.50;49.80;;;;;;10218540;28;20048;-81
2021/04/11 01:39:24;;;;;;;18.75;8.95;;;12.90;49.70;;;;;;10197454;28;20567;-80
2021/04/11 01:44:23;;;;;;;13.15;6.75;;;14.70;50.50;;;;;;10206457;28;20644;-79
2021/04/11 01:49:19;;;;;;;23.27;7.00;;;13.30;50.20;;;;;;10222103;28;20059;-82
2021/04/11 01:54:18;;;;;;;16.95;7.40;;;13.60;50.00;;;;;;10218231;28;20051;-81
2021/04/11 01:59:12;;;;;;;21.88;7.50;;;14.20;50.60;;;;;;10199962;28;20039;-81
2021/04/11 02:04:12;;;;;;;17.83;7.03;;;14.10;51.50;;;;;;10198658;28;20040;-80
2021/04/11 02:09:09;;;;;;;13.73;6.25;;;13.90;51.20;;;;;;10199089;28;20044;-82
2021/04/11 02:14:15;;;;;;;12.93;5.70;;;;;;;;;;10198836;28;20502;-82
2021/04/11 02:19:15;;;;;;;17.23;5.93;;;13.90;51.20;;;;;;10217502;28;20058;-81
2021/04/11 02:24:10;;;;;;;12.38;5.70;;;13.40;51.60;;;;;;10217427;28;20063;-82
2021/04/11 02:29:05;;;;;;;15.70;5.93;;;;;;;;;;10198122;28;20047;-80
2021/04/11 02:34:03;;;;;;;9.68;5.18;;;13.70;50.50;;;;;;10198773;28;20039;-81
2021/04/11 02:38:57;;;;;;;12.50;5.50;;;14.10;51.60;;;;;;10197915;28;20155;-80
2021/04/11 02:43:51;;;;;;;12.55;5.20;;;12.40;50.10;;;;;;10198578;28;20087;-80
2021/04/11 02:48:43;;;;;;;14.77;6.40;;;12.10;50.20;;;;;;10215907;28;20051;-80
2021/04/11 02:53:44;;;;;;;13.55;6.15;;;12.10;51.30;;;;;;10193513;28;20061;-81
2021/04/11 02:58:47;;;;;;;10.52;5.43;;;;;;;;;;10197294;28;20068;-81
2021/04/11 03:03:42;;;;;;;13.43;5.57;;;12.50;51.60;;;;;;10197321;28;20044;-81
2021/04/11 03:08:38;;;;;;;15.35;6.00;;;12.30;50.80;;;;;;10197326;28;20051;-80
2021/04/11 03:13:36;;;;;;;13.13;6.10;;;12.00;50.70;;;;;;10197181;28;20047;-82
2021/04/11 03:18:32;;;;;;;11.50;5.20;;;12.10;50.70;;;;;;10196866;28;20374;-80
2021/04/11 03:23:26;;;;;;;12.07;5.68;;;13.00;51.70;;;;;;10215668;28;20482;-81
2021/04/11 03:28:31;;;;;;;17.48;6.07;;;13.00;51.70;;;;;;10197394;28;20062;-81
2021/04/11 03:33:25;;;;;;;;;;;13.30;51.20;;;;;;10197770;28;20052;-83
2021/04/11 03:38:23;;;;;;;11.75;5.05;;;12.20;50.70;;;;;;10213084;28;20002;-81
2021/04/11 03:43:20;;;;;;;;;;;12.40;51.00;;;;;;10196058;28;20352;-81
2021/04/11 03:48:21;;;;;;;11.70;4.72;;;14.10;51.70;;;;;;10197211;28;19930;-81
2021/04/11 03:53:19;;;;;;;9.15;4.45;;;11.90;51.70;;;;;;10214690;28;20050;-82
2021/04/11 03:58:22;;;;;;;11.25;4.10;;;12.20;52.20;;;;;;10211205;28;20047;-83
2021/04/11 04:03:19;;;;;;;10.63;4.47;;;12.60;52.50;;;;;;10195227;28;20036;-81
2021/04/11 04:08:14;;;;;;;9.38;4.30;;;12.10;52.20;;;;;;10195455;28;20051;-81
2021/04/11 04:13:17;;;;;;;10.75;4.40;;;12.70;52.50;;;;;;10198179;28;20044;-82
2021/04/11 04:18:48;;;;;;;11.10;3.88;;;14.30;52.70;;;;;;10203897;28;20048;-82
2021/04/11 04:23:51;;;;;;;10.18;3.60;;;13.50;53.00;;;;;;10197971;28;20040;-82
2021/04/11 04:28:55;;;;;;;11.15;3.95;;;12.00;52.10;;;;;;10195496;28;20055;-82
2021/04/11 04:34:08;;;;;;;11.50;3.78;;;12.70;52.50;;;;;;10195767;28;20120;-83
2021/04/11 04:39:24;;;;;;;6.95;3.05;;;13.40;52.20;;;;;;10194974;28;20062;-81
2021/04/11 04:44:27;;;;;;;7.53;3.47;;;12.60;52.60;;;;;;10195446;28;20413;-83
2021/04/11 04:49:27;;;;;;;11.07;3.80;;;11.50;51.20;;;;;;10213911;28;20490;-81
2021/04/11 04:54:32;;;;;;;9.98;3.25;;;12.20;51.50;;;;;;10197968;28;20093;-82
2021/04/11 04:59:31;;;;;;;8.60;3.85;;;12.80;52.60;;;;;;10203312;28;20044;-81
2021/04/11 05:04:28;;;;;;;8.65;3.72;;;13.80;52.30;;;;;;10221330;28;20048;-81
2021/04/11 05:09:35;;;;;;;12.23;3.92;;;14.40;52.50;;;;;;10202896;28;20080;-80
2021/04/11 05:14:38;;;;;;;10.77;4.32;;;12.60;52.30;;;;;;10202043;28;20044;-83
2021/04/11 05:19:37;;;;;;;9.80;3.60;;;13.90;52.30;;;;;;10232311;28;20505;-82
2021/04/11 05:24:47;;;;;;;13.57;3.40;;;12.60;51.70;;;;;;10201377;28;20036;-82
2021/04/11 05:29:48;;;;;;;10.40;3.80;;;13.80;51.90;;;;;;10200806;28;20047;-82
2021/04/11 05:34:43;;;;;;;10.75;3.15;;;12.20;50.90;;;;;;10219348;28;20418;-80
2021/04/11 05:39:45;;;;;;;9.48;3.28;;;13.40;51.30;;;;;;10216912;28;20063;-81
2021/04/11 05:44:46;;;;;;;7.70;3.05;;;12.60;51.00;;;;;;10217938;28;20040;-83
2021/04/11 05:49:48;;;;;;;7.68;3.20;;;11.90;50.80;;;;;;10218926;28;20063;-82
2021/04/11 05:54:44;;;;;;;7.00;3.05;;;11.90;50.70;;;;;;10219049;28;20044;-84
2021/04/11 05:59:41;;;;;;;7.30;3.05;;;13.20;51.40;;;;;;10218186;28;20089;-82
2021/04/11 06:04:40;;;;;;;7.78;3.60;;;11.90;50.60;;;;;;10216570;28;20490;-82
2021/04/11 06:09:37;;;;;;;8.05;3.30;;;12.10;50.50;;;;;;10217548;28;20053;-81
2021/04/11 06:14:34;;;;;;;8.75;3.67;;;12.30;50.70;;;;;;10218434;28;20048;-82
2021/04/11 06:19:27;;;;;;;9.32;3.72;;;14.20;51.80;;;;;;10218656;28;20154;-83
2021/04/11 06:24:33;;;;;;;9.48;3.80;;;14.00;51.70;;;;;;10234659;28;20043;-83
2021/04/11 06:29:32;;;;;;;13.77;3.65;;;12.80;51.80;;;;;;10217628;28;20071;-81
2021/04/11 06:34:31;;;;;;;8.27;3.78;;;15.30;52.90;;;;;;10218383;28;20140;-82
2021/04/11 06:39:26;;;;;;;10.57;3.30;;;12.00;50.60;;;;;;10199426;28;20064;-82
2021/04/11 06:44:54;;;;;;;7.63;3.30;;;15.00;51.30;;;;;;10220033;28;20048;-84
2021/04/11 06:50:11;;;;;;;10.80;3.95;;;14.00;51.30;;;;;;10181612;28;20073;-84
2021/04/11 06:55:20;;;;;;;10.85;3.95;;;13.90;50.90;;;;;;10216641;28;20048;-85
2021/04/11 07:00:27;;;;;;;10.65;4.25;;;14.10;51.40;;;;;;10216263;28;20058;-75
2021/04/11 07:05:45;;;;;;;10.80;3.90;;;16.00;51.80;;;;;;10215188;28;20477;-75
2021/04/11 07:11:13;;;;;;;6.13;3.05;;;13.20;49.40;;;;;;10215493;28;20452;-74
2021/04/11 07:16:44;;;;;;;6.35;2.67;;;14.40;49.60;;;;;;10211839;28;20130;-75
2021/04/11 07:22:13;;;;;;;7.57;2.72;;;15.00;49.60;;;;;;10209719;28;20372;-76
2021/04/11 07:27:24;;;;;;;8.60;3.10;;;16.00;50.50;;;;;;10219514;28;20049;-83
2021/04/11 07:32:41;;;;;;;5.72;2.85;;;16.60;50.70;;;;;;10199219;28;20137;-84
2021/04/11 07:37:43;;;;;;;6.50;3.05;;;;;;;;;;10191451;28;20134;-83
2021/04/11 07:42:50;;;;;;;11.52;2.88;;;13.70;49.10;;;;;;10189853;28;20130;-83
2021/04/11 07:47:56;;;;;;;8.75;2.90;;;15.50;49.10;;;;;;10213891;28;20486;-83
2021/04/11 07:53:30;;;;;;;13.13;3.17;;;15.00;48.60;;;;;;10214449;28;20047;-83
2021/04/11 07:58:50;;;;;;;11.98;2.80;;;15.80;49.60;;;;;;10215012;28;20043;-83
2021/04/11 08:04:25;;;;;;;7.40;2.55;;;14.90;47.70;;;;;;10190680;28;20071;-84
2021/04/11 08:09:33;;;;;;;7.20;3.00;;;15.10;48.00;;;;;;10195207;28;20070;-83
2021/04/11 08:14:43;;;;;;;7.50;2.35;;;14.90;48.90;;;;;;10214157;28;20452;-83
2021/04/11 08:20:17;;;;;;;7.13;2.15;;;14.40;47.50;;;;;;10213815;28;20124;-82
2021/04/11 08:25:24;;;;;;;4.47;1.80;;;14.20;47.10;;;;;;10213841;28;20044;-83
2021/04/11 08:30:30;;;;;;;7.78;2.20;;;14.80;48.20;;;;;;10218359;28;20047;-82
2021/04/11 08:35:37;;;;;;;11.02;2.40;;;15.30;47.60;;;;;;10230018;28;20039;-83
2021/04/11 08:40:53;;;;;;;7.30;2.35;;;15.10;48.10;;;;;;10220619;28;20047;-84
2021/04/11 08:46:14;;;;;;;4.95;2.30;;;16.00;47.50;;;;;;10220976;28;20054;-83
2021/04/11 08:51:14;;;;;;;7.38;2.35;;;16.70;47.60;;;;;;10220386;28;20510;-85
2021/04/11 08:56:19;;;;;;;4.78;1.98;;;17.20;47.30;;;;;;10202813;28;20051;-83
2021/04/11 09:01:28;;;;;;;7.63;2.10;;;15.90;47.50;;;;;;10220443;28;20044;-83
2021/04/11 09:06:26;;;;;;;6.55;2.33;;;;;;;;;;10220208;28;20116;-83
2021/04/11 09:11:47;;;;;;;9.15;2.28;;;15.70;45.30;;;;;;10219845;28;20063;-84
2021/04/11 09:16:51;;;;;;;4.80;2.38;;;15.80;45.60;;;;;;10219634;28;20470;-83
2021/04/11 09:22:10;;;;;;;7.63;2.28;;;17.20;46.00;;;;;;10219841;28;20070;-83
2021/04/11 09:27:24;;;;;;;7.80;1.80;;;18.60;47.40;;;;;;10188453;28;20059;-82
2021/04/11 09:32:33;;;;;;;11.48;2.30;;;17.30;46.30;;;;;;10218948;28;20173;-83
2021/04/11 09:38:05;;;;;;;10.53;2.20;;;18.50;47.20;;;;;;10218681;28;20044;-83
2021/04/11 09:43:38;;;;;;;7.10;2.30;;;16.30;44.80;;;;;;10194149;28;20288;-83
2021/04/11 09:48:39;;;;;;;4.90;2.08;;;;;;;;;;10199345;28;20052;-84
2021/04/11 09:54:06;;;;;;;5.45;2.13;;;15.50;44.50;;;;;;10218190;28;20470;-83
2021/04/11 09:59:13;;;;;;;6.15;1.77;;;17.90;44.90;;;;;;10219025;28;20044;-83
2021/04/11 10:04:25;;;;;;;4.47;2.03;;;16.70;43.70;;;;;;10219138;28;20052;-83
2021/04/11 10:09:45;;;;;;;12.48;2.20;;;18.00;45.00;;;;;;10216685;28;20443;-82
2021/04/11 10:14:59;;;;;;;8.15;2.25;;;15.30;42.40;;;;;;10211511;28;20051;-83
2021/04/11 10:20:00;;;;;;;4.70;2.40;;;17.40;43.50;;;;;;10217470;28;20439;-84
2021/04/11 10:25:07;;;;;;;6.20;2.40;;;18.70;44.90;;;;;;10198144;28;20088;-83
2021/04/11 10:30:01;;;;;;;4.82;1.85;;;18.90;44.60;;;;;;10199143;28;20056;-83
2021/04/11 10:35:02;;;;;;;6.72;2.03;;;17.50;41.80;;;;;;10216528;28;20062;-81
2021/04/11 10:40:07;;;;;;;6.20;1.98;;;19.00;43.20;;;;;;10216366;28;20056;-82
2021/04/11 10:45:17;;;;;;;8.32;2.88;;;17.70;41.90;;;;;;10221335;28;20048;-82
2021/04/11 10:50:17;;;;;;;7.30;2.50;;;17.60;42.20;;;;;;10216805;28;20047;-81
2021/04/11 10:55:32;;;;;;;10.00;2.65;;;17.40;42.50;;;;;;10197325;28;20118;-83
2021/04/11 11:00:34;;;;;;;8.52;2.60;;;16.10;41.20;;;;;;10198412;28;20375;-83
2021/04/11 11:05:37;;;;;;;3.63;2.47;;;17.00;41.30;;;;;;10215312;28;20043;-82
2021/04/11 11:10:36;;;;;;;5.82;2.63;;;;;;;;;;10214984;28;20047;-84
2021/04/11 11:16:10;;;;;;;8.63;2.73;;;17.60;42.40;;;;;;10215958;28;20047;-83
2021/04/11 11:21:28;;;;;;;8.60;2.50;;;17.80;41.60;;;;;;10207088;28;20043;-84
2021/04/11 11:26:38;;;;;;;6.03;2.22;;;17.90;41.10;;;;;;10197830;28;20047;-83
2021/04/11 11:31:38;;;;;;;5.93;2.28;;;17.60;39.80;;;;;;10214409;28;20054;-83
2021/04/11 11:36:39;;;;;;;5.10;2.13;;;18.70;42.00;;;;;;10213482;28;20479;-82
2021/04/11 11:41:44;;;;;;;5.28;1.88;;;17.90;40.60;;;;;;10177697;28;20496;-83
2021/04/11 11:46:43;;;;;;;5.47;2.13;;;18.30;41.20;;;;;;10212494;28;20387;-82
2021/04/11 11:51:43;;;;;;;5.88;2.30;;;17.90;39.50;;;;;;10223621;28;20036;-83
2021/04/11 11:56:42;;;;;;;4.35;2.28;;;18.20;39.60;;;;;;10214392;28;20534;-83
2021/04/11 12:01:44;;;;;;;5.20;2.20;;;17.00;38.30;;;;;;10196844;28;20054;-83
2021/04/11 12:06:47;;;;;;;6.07;2.20;;;17.70;37.20;;;;;;10221702;28;20284;-82
2021/04/11 12:11:46;;;;;;;7.20;2.20;;;17.80;38.20;;;;;;10204068;28;20051;-82
2021/04/11 12:16:44;;;;;;;8.65;2.40;;;18.00;39.50;;;;;;10221860;28;20047;-82
2021/04/11 12:21:45;;;;;;;8.35;2.60;;;18.20;38.40;;;;;;10221860;28;20068;-84
2021/04/11 12:26:46;;;;;;;6.47;2.88;;;17.60;38.10;;;;;;10203955;28;20077;-82
2021/04/11 12:31:43;;;;;;;6.57;2.28;;;17.40;38.20;;;;;;10221697;28;20055;-82
2021/04/11 12:36:47;;;;;;;7.25;2.45;;;15.50;36.30;;;;;;10222543;28;20198;-81
2021/04/11 12:41:44;;;;;;;6.75;2.10;;;17.60;38.30;;;;;;10203957;28;20051;-83
2021/04/11 12:46:39;;;;;;;5.65;2.20;;;;;;;;;;10222329;28;20047;-83
2021/04/11 12:51:38;;;;;;;5.82;2.38;;;17.20;38.50;;;;;;10221355;28;20044;-83
2021/04/11 12:56:36;;;;;;;10.68;2.15;;;18.10;39.20;;;;;;10224648;28;20040;-81
2021/04/11 13:01:38;;;;;;;7.65;2.40;;;17.10;39.00;;;;;;10229746;28;20423;-84
2021/04/11 13:06:41;;;;;;;4.75;1.88;;;18.10;39.80;;;;;;10220052;28;20052;-85
2021/04/11 13:11:43;;;;;;;5.90;2.17;;;17.60;40.80;;;;;;10202026;28;20071;-83
2021/04/11 13:16:43;;;;;;;4.43;1.90;;;15.70;40.10;;;;;;10219209;28;20048;-83
2021/04/11 13:21:41;;;;;;;4.75;2.42;;;17.90;40.50;;;;;;10219559;28;20048;-83
2021/04/11 13:26:43;;;;;;;5.30;2.57;;;18.20;40.90;;;;;;10219836;28;20043;-82
2021/04/11 13:31:43;;;;;;;6.70;2.47;;;17.60;40.80;;;;;;10220124;28;20052;-83
2021/04/11 13:36:41;;;;;;;4.60;2.20;;;16.00;40.80;;;;;;10219075;28;20036;-83
2021/04/11 13:41:54;;;;;;;6.57;2.17;;;;;;;;;;10217156;28;20104;-83
2021/04/11 13:46:51;;;;;;;5.70;2.55;;;;;;;;;;10173801;28;20047;-82
2021/04/11 13:51:52;;;;;;;7.53;2.60;;;17.40;41.50;;;;;;10217906;28;20417;-83
2021/04/11 13:57:11;;;;;;;3.95;2.50;;;16.50;39.90;;;;;;10217899;28;20071;-83
2021/04/11 14:02:19;;;;;;;7.03;2.47;;;17.60;40.80;;;;;;10218543;28;20080;-84
2021/04/11 14:07:18;;;;;;;4.17;2.23;;;17.60;41.90;;;;;;10227964;28;20060;-82
2021/04/11 14:12:16;;;;;;;4.50;2.60;;;18.60;41.50;;;;;;10217512;28;20044;-83
2021/04/11 14:17:19;;;;;;;13.38;2.88;;;15.80;40.90;;;;;;10217889;28;20096;-82
2021/04/11 14:22:21;;;;;;;4.80;2.50;;;18.00;42.10;;;;;;10216557;28;20051;-81
2021/04/11 14:27:19;;;;;;;8.60;2.70;;;16.70;40.70;;;;;;10217391;28;20401;-82
2021/04/11 14:32:20;;;;;;;8.70;2.80;;;17.50;42.00;;;;;;10216814;28;20044;-82
2021/04/11 14:37:19;;;;;;;8.02;2.85;;;;;;;;;;10216343;28;20058;-82
2021/04/11 14:42:21;;;;;;;7.93;3.25;;;17.50;41.10;;;;;;10215871;28;20489;-84
2021/04/11 14:47:23;;;;;;;7.18;2.72;;;19.20;42.60;;;;;;10217095;28;20048;-82
2021/04/11 14:52:25;;;;;;;7.10;2.58;;;17.30;41.60;;;;;;10197820;28;20122;-82
2021/04/11 14:57:31;;;;;;;8.38;2.88;;;18.40;42.10;;;;;;10215251;28;20086;-82
2021/04/11 15:02:33;;;;;;;6.97;2.75;;;15.40;39.90;;;;;;10215689;28;20453;-82
2021/04/11 15:07:34;;;;;;;5.90;2.70;;;17.30;41.40;;;;;;10215287;28;20476;-83
2021/04/11 15:12:35;;;;;;;9.77;3.58;;;18.10;42.00;;;;;;10228406;28;20036;-84
2021/04/11 15:17:31;;;;;;;5.75;2.70;;;;;;;;;;10214988;28;20044;-83
2021/04/11 15:22:28;;;;;;;5.38;2.47;;;15.90;41.70;;;;;;10214940;28;20047;-84
2021/04/11 15:27:27;;;;;;;5.93;2.40;;;18.80;43.50;;;;;;10215322;28;20390;-82
2021/04/11 15:32:24;;;;;;;9.30;3.58;;;15.30;41.30;;;;;;10215038;28;20048;-81
2021/04/11 15:37:30;;;;;;;6.05;2.30;;;;;;;;;;10213824;28;20130;-83
2021/04/11 15:42:34;;;;;;;5.60;2.72;;;17.20;42.10;;;;;;10212868;28;20395;-83
2021/04/11 15:47:37;;;;;;;5.93;2.72;;;17.00;41.70;;;;;;10213251;28;20740;-84
2021/04/11 15:52:40;;;;;;;10.48;3.42;;;18.70;42.60;;;;;;10216965;28;20486;-83
2021/04/11 15:57:37;;;;;;;10.23;2.38;;;18.90;43.20;;;;;;10214981;28;20044;-83
2021/04/11 16:02:31;;;;;;;5.28;2.10;;;;;;;;;;10216700;28;20056;-81
2021/04/11 16:07:30;;;;;;;3.92;2.30;;;15.60;40.00;;;;;;10214820;28;20089;-83
2021/04/11 16:12:45;;;;;;;5.15;2.50;;;17.70;40.80;;;;;;10213525;28;20044;-84
2021/04/11 16:18:06;;;;;;;8.02;2.88;;;17.70;41.20;;;;;;10223269;28;20108;-83
2021/04/11 16:23:15;;;;;;;5.15;2.65;;;15.70;41.00;;;;;;10202040;28;20243;-83
2021/04/11 16:28:25;;;;;;;4.65;2.40;;;17.80;41.60;;;;;;10212952;28;20079;-82
2021/04/11 16:33:23;;;;;;;;;;;17.20;41.50;;;;;;10214718;28;20031;-83
2021/04/11 16:38:36;;;;;;;6.43;2.92;;;17.50;41.90;;;;;;10213357;28;20006;-82
2021/04/11 16:43:37;;;;;;;6.57;2.97;;;17.90;42.20;;;;;;10213736;28;20442;-83
2021/04/11 16:48:40;;;;;;;4.80;2.28;;;17.70;42.10;;;;;;10212546;28;20122;-83
2021/04/11 16:53:40;;;;;;;6.90;2.70;;;18.70;43.80;;;;;;10202216;28;20055;-82
2021/04/11 16:58:41;;;;;;;11.48;4.15;;;17.80;42.40;;;;;;10221309;28;20055;-82
2021/04/11 17:03:47;;;;;;;6.15;2.60;;;16.00;41.70;;;;;;10221077;28;20497;-83
2021/04/11 17:08:45;;;;;;;6.60;2.35;;;18.10;42.90;;;;;;10203336;28;20051;-83
2021/04/11 17:13:53;;;;;;;9.05;2.75;;;17.90;42.80;;;;;;10201553;28;20051;-83
2021/04/11 17:19:06;;;;;;;5.60;2.30;;;15.10;42.30;;;;;;10219631;28;20039;-83
2021/04/11 17:24:05;;;;;;;10.30;3.50;;;15.60;41.70;;;;;;10232675;28;20051;-83
2021/04/11 17:29:04;;;;;;;17.13;5.37;;;;;;;;;;10220493;28;20047;-82
2021/04/11 17:34:04;;;;;;;5.28;2.88;;;17.80;43.50;;;;;;10221301;28;20051;-84
2021/04/11 17:39:06;;;;;;;8.40;3.13;;;17.30;42.50;;;;;;10221080;28;20051;-83
2021/04/11 17:44:12;;;;;;;7.97;3.00;;;17.40;42.90;;;;;;10218039;28;20119;-82
2021/04/11 17:49:11;;;;;;;11.57;3.58;;;15.30;41.90;;;;;;10217757;28;20043;-83
2021/04/11 17:54:27;;;;;;;7.13;3.10;;;16.00;42.00;;;;;;10218810;28;20486;-81
2021/04/11 17:59:31;;;;;;;9.60;4.40;;;18.10;44.40;;;;;;10219307;28;20413;-82
2021/04/11 18:04:34;;;;;;;12.38;4.72;;;17.70;43.70;;;;;;10219184;28;20535;-82
2021/04/11 18:09:34;;;;;;;11.38;4.10;;;14.50;43.10;;;;;;10217699;28;20052;-82
2021/04/11 18:14:35;;;;;;;11.68;4.85;;;17.40;43.70;;;;;;10220033;28;20047;-83
2021/04/11 18:19:55;;;;;;;9.38;4.53;;;16.70;43.50;;;;;;10218860;28;20052;-83
2021/04/11 18:24:54;;;;;;;14.02;4.78;;;17.70;45.10;;;;;;10213403;28;20059;-83
2021/04/11 18:30:02;;;;;;;16.52;5.20;;;16.70;43.90;;;;;;10225580;28;20207;-83
2021/04/11 18:34:56;;;;;;;14.07;5.57;;;;;;;;;;10199802;28;20058;-83
2021/04/11 18:39:53;;;;;;;12.65;5.38;;;;;;;;;;10218063;28;20092;-83
2021/04/11 18:44:53;;;;;;;12.35;5.65;;;15.40;43.70;;;;;;10216978;28;20043;-82
2021/04/11 18:50:16;;;;;;;15.00;6.63;;;15.30;43.80;;;;;;10216623;28;20044;-82
2021/04/11 18:55:19;;;;;;;15.20;6.07;;;15.30;43.90;;;;;;10216654;28;20062;-83
2021/04/11 19:00:37;;;;;;;11.77;6.40;;;17.70;45.30;;;;;;10216998;28;20040;-82
2021/04/11 19:05:39;;;;;;;15.20;7.30;;;;;;;;;;10215673;28;20055;-80
2021/04/11 19:10:52;;;;;;;15.95;7.20;;;16.40;44.90;;;;;;10176035;28;20142;-81
2021/04/11 19:15:50;;;;;;;15.45;6.72;;;15.10;44.90;;;;;;10172923;28;20047;-81
2021/04/11 19:20:53;;;;;;;14.47;7.67;;;16.20;45.80;;;;;;10173966;28;20043;-82
2021/04/11 19:26:27;;;;;;;13.32;6.43;;;18.20;46.90;;;;;;10181830;28;20058;-80
2021/04/11 19:32:00;;;;;;;17.00;6.45;;;17.40;45.80;;;;;;10152687;28;20060;-82
2021/04/11 19:37:32;;;;;;;18.27;6.60;;;15.50;45.90;;;;;;10191303;28;20493;-82
2021/04/11 19:42:40;;;;;;;13.77;6.50;;;14.80;45.50;;;;;;10213262;28;20403;-80
2021/04/11 19:47:51;;;;;;;19.25;6.70;;;16.50;45.60;;;;;;10212772;28;20077;-87
2021/04/11 19:53:12;;;;;;;14.95;6.75;;;16.20;46.20;;;;;;10212555;28;20060;-82
2021/04/11 19:58:37;;;;;;;14.90;6.38;;;15.60;45.10;;;;;;10202309;28;20047;-82
2021/04/11 20:04:10;;;;;;;16.10;6.00;;;15.10;45.00;;;;;;10174153;28;20044;-86
2021/04/11 20:09:26;;;;;;;13.50;5.85;;;15.40;45.20;;;;;;10164537;28;20047;-82
2021/04/11 20:15:16;;;;;;;14.07;5.60;;;14.70;46.00;;;;;;10216723;28;20047;-81
2021/04/11 20:20:45;;;;;;;11.17;5.27;;;16.10;45.90;;;;;;10114505;28;20417;-83
2021/04/11 20:25:52;;;;;;;14.85;6.07;;;14.70;46.10;;;;;;10221845;28;20062;-83
2021/04/11 20:31:17;;;;;;;12.15;5.85;;;;;;;;;;10204979;28;20055;-82
2021/04/11 20:36:30;;;;;;;11.55;5.88;;;15.40;46.70;;;;;;10222892;28;20093;-81
2021/04/11 20:41:46;;;;;;;12.93;5.50;;;14.50;46.30;;;;;;10232465;28;20127;-80
2021/04/11 20:47:14;;;;;;;9.82;4.95;;;14.20;46.10;;;;;;10223478;28;20047;-82
2021/04/11 20:52:20;;;;;;;8.80;4.88;;;14.50;46.30;;;;;;10220067;28;20482;-79
2021/04/11 20:57:35;;;;;;;9.93;5.57;;;15.40;46.70;;;;;;10219612;28;20045;-82
2021/04/11 21:02:44;;;;;;;8.45;5.15;;;14.50;46.40;;;;;;10220635;28;20070;-80
2021/04/11 21:07:51;;;;;;;12.43;5.37;;;14.90;47.50;;;;;;10220386;28;20100;-81
2021/04/11 21:13:16;;;;;;;11.02;4.88;;;15.80;47.50;;;;;;10219738;28;20047;-80
2021/04/11 21:18:57;;;;;;;14.00;5.72;;;14.30;46.70;;;;;;10202479;28;20051;-79
2021/04/11 21:24:06;;;;;;;;;;;15.70;47.80;;;;;;10012888;28;20080;-80
2021/04/11 21:29:22;;;;;;;10.95;5.55;;;14.40;47.10;;;;;;10185888;28;19919;-82
2021/04/11 21:34:40;;;;;;;9.38;4.50;;;14.80;47.20;;;;;;10219779;28;20040;-82
2021/04/11 21:39:51;;;;;;;9.50;5.00;;;15.40;47.70;;;;;;10218418;28;20056;-80
2021/04/11 21:44:55;;;;;;;8.02;4.57;;;14.80;47.30;;;;;;10200029;28;20448;-80
2021/04/11 21:50:11;;;;;;;10.73;4.53;;;14.50;47.20;;;;;;10221827;28;20047;-80
2021/04/11 21:55:11;;;;;;;9.95;4.45;;;14.50;47.40;;;;;;10217375;28;20055;-79
2021/04/11 22:00:13;;;;;;;10.25;4.85;;;15.20;47.90;;;;;;10217724;28;20474;-79
2021/04/11 22:05:19;;;;;;;7.00;4.20;;;;;;;;;;10216992;28;20048;-79
2021/04/11 22:10:20;;;;;;;10.63;4.57;;;14.70;48.00;;;;;;10216301;28;20124;-80
2021/04/11 22:15:23;;;;;;;10.30;4.65;;;14.20;47.80;;;;;;10216751;28;20093;-78
2021/04/11 22:20:21;;;;;;;11.00;4.80;;;14.60;48.00;;;;;;10216679;28;20066;-79
2021/04/11 22:25:20;;;;;;;9.52;4.25;;;14.70;48.00;;;;;;10214351;28;20386;-82
2021/04/11 22:30:27;;;;;;;10.70;4.65;;;14.80;48.60;;;;;;10215168;28;20455;-81
2021/04/11 22:35:23;;;;;;;8.13;4.78;;;15.60;48.20;;;;;;10216479;28;20467;-83
2021/04/11 22:40:22;;;;;;;10.68;5.13;;;14.40;47.80;;;;;;10217827;28;20498;-84
2021/04/11 22:45:21;;;;;;;10.48;5.32;;;15.80;49.30;;;;;;10218178;28;20059;-83
2021/04/11 22:50:16;;;;;;;;;;;14.60;47.90;;;;;;10218842;28;20521;-86
2021/04/11 22:55:23;;;;;;;15.27;4.68;;;15.90;49.60;;;;;;10231816;28;19919;-85
2021/04/11 23:00:27;;;;;;;12.85;5.00;;;14.10;48.10;;;;;;10216588;28;20043;-88
2021/04/11 23:05:24;;;;;;;11.07;5.25;;;15.30;48.90;;;;;;10216025;28;20099;-86
2021/04/11 23:10:27;;;;;;;11.07;5.13;;;15.20;49.20;;;;;;10215889;28;20086;-85
2021/04/11 23:15:35;;;;;;;11.95;6.30;;;14.40;48.70;;;;;;10216583;28;20500;-85
2021/04/11 23:20:33;;;;;;;12.00;6.45;;;15.20;50.00;;;;;;10197298;28;20047;-85
2021/04/11 23:25:32;;;;;;;15.05;6.80;;;14.20;48.70;;;;;;10215876;28;20043;-85
2021/04/11 23:30:33;;;;;;;11.45;6.45;;;15.00;49.10;;;;;;10215423;28;20055;-85
2021/04/11 23:35:34;;;;;;;12.13;6.32;;;15.00;49.00;;;;;;10215093;28;20080;-85
2021/04/11 23:40:43;;;;;;;13.38;5.65;;;15.00;49.70;;;;;;10196672;28;20498;-85
2021/04/11 23:45:43;;;;;;;11.10;5.03;;;14.60;49.60;;;;;;10214532;28;20504;-86
2021/04/11 23:50:43;;;;;;;11.10;5.32;;;15.80;49.40;;;;;;10212900;28;20070;-85
2021/04/11 23:55:43;;;;;;;12.18;5.75;;;15.00;49.90;;;;;;10215384;28;20499;-86
